Time;durP1;ratioP1;P1;durP2;ratioP2;P2;SDS_P1;SDS_P2;PMS_P1;PMS_P2;Temp;Humidity;BMP_temperature;BMP_pressure;BME280_temperature;BME280_humidity;BME280_pressure;Samples;Min_cycle;Max_cycle;Signal;HPM_P1;HPM_P2
2021/08/01 00:01:59;;;;;;;8.30;3.62;;;16.80;99.90;;;;;;1975644;72;21062;-78
2021/08/01 00:04:25;;;;;;;7.60;3.33;;;16.90;99.90;;;;;;1975276;72;21079;-78
2021/08/01 00:06:51;;;;;;;8.85;3.98;;;16.90;99.90;;;;;;1968028;72;21120;-78
2021/08/01 00:09:17;;;;;;;6.22;3.35;;;17.00;99.90;;;;;;1974702;72;21063;-78
2021/08/01 00:11:43;;;;;;;7.28;3.25;;;17.00;99.90;;;;;;1974512;73;21537;-78
2021/08/01 00:14:09;;;;;;;6.50;3.58;;;17.00;99.90;;;;;;1971853;72;21555;-78
2021/08/01 00:16:36;;;;;;;5.22;3.50;;;17.00;99.90;;;;;;1985575;72;21411;-78
2021/08/01 00:19:02;;;;;;;5.72;3.55;;;17.00;99.90;;;;;;1974242;72;21544;-78
2021/08/01 00:21:30;;;;;;;9.80;3.47;;;17.00;99.90;;;;;;1974647;73;21467;-78
2021/08/01 00:23:56;;;;;;;6.42;3.27;;;17.00;99.90;;;;;;1974307;72;21075;-78
2021/08/01 00:26:22;;;;;;;8.33;3.40;;;17.00;99.90;;;;;;1974587;72;21081;-78
2021/08/01 00:28:48;;;;;;;8.33;3.85;;;16.90;99.90;;;;;;1964414;72;21128;-78
2021/08/01 00:31:14;;;;;;;9.95;4.42;;;17.00;99.90;;;;;;1976916;72;21343;-78
2021/08/01 00:33:40;;;;;;;4.70;3.22;;;17.00;99.90;;;;;;1974449;72;21445;-78
2021/08/01 00:36:06;;;;;;;10.88;3.83;;;17.00;99.90;;;;;;1970738;72;21489;-78
2021/08/01 00:38:32;;;;;;;6.62;3.22;;;16.90;99.90;;;;;;1988874;72;21496;-78
2021/08/01 00:40:58;;;;;;;10.78;3.67;;;16.80;99.90;;;;;;1976019;72;21532;-78
2021/08/01 00:43:25;;;;;;;6.40;3.17;;;16.80;99.90;;;;;;1970756;72;21598;-78
2021/08/01 00:45:51;;;;;;;5.58;3.05;;;16.70;99.90;;;;;;1974541;73;21568;-78
2021/08/01 00:48:17;;;;;;;10.88;3.20;;;16.70;99.90;;;;;;1971232;72;21487;-78
2021/08/01 00:50:43;;;;;;;7.28;3.25;;;16.60;99.90;;;;;;1976787;72;21482;-78
2021/08/01 00:53:09;;;;;;;5.53;2.85;;;16.60;99.90;;;;;;1989774;72;21027;-78
2021/08/01 00:55:35;;;;;;;3.52;2.85;;;16.60;99.90;;;;;;1975461;72;21172;-78
2021/08/01 00:58:01;;;;;;;7.95;3.20;;;16.60;99.90;;;;;;1974575;72;21072;-77
2021/08/01 01:00:47;;;;;;;5.17;3.45;;;16.50;99.90;;;;;;1973579;72;21071;-78
2021/08/01 01:03:01;;;;;;;6.45;3.10;;;16.50;99.90;;;;;;1975379;72;21057;-78
2021/08/01 01:05:27;;;;;;;5.33;2.95;;;16.50;99.90;;;;;;1972076;72;21058;-78
2021/08/01 01:07:53;;;;;;;5.47;3.65;;;16.40;99.90;;;;;;1975172;72;21125;-78
2021/08/01 01:10:20;;;;;;;36.05;3.62;;;16.40;99.90;;;;;;1967714;72;21058;-78
2021/08/01 01:12:46;;;;;;;4.28;3.00;;;16.40;99.90;;;;;;1967992;72;21059;-78
2021/08/01 01:15:12;;;;;;;4.60;3.37;;;16.30;99.90;;;;;;1974921;72;21112;-78
2021/08/01 01:17:38;;;;;;;31.12;3.30;;;16.30;99.90;;;;;;1981092;72;21124;-77
2021/08/01 01:20:04;;;;;;;4.83;3.10;;;16.30;99.90;;;;;;1985018;72;21043;-78
2021/08/01 01:22:30;;;;;;;3.67;2.95;;;16.30;99.90;;;;;;1972639;72;21166;-78
2021/08/01 01:24:56;;;;;;;8.38;3.58;;;16.20;99.90;;;;;;1968789;72;21129;-78
2021/08/01 01:27:23;;;;;;;7.15;3.60;;;16.30;99.90;;;;;;1969694;72;21140;-77
2021/08/01 01:29:49;;;;;;;5.15;3.15;;;16.20;99.90;;;;;;1971058;72;21094;-77
2021/08/01 01:32:15;;;;;;;4.72;3.10;;;16.30;99.90;;;;;;1980843;72;21068;-77
2021/08/01 01:34:41;;;;;;;4.28;3.02;;;16.40;99.90;;;;;;1970697;72;21055;-77
2021/08/01 01:37:08;;;;;;;7.15;3.22;;;16.30;99.90;;;;;;1970828;72;21055;-78
2021/08/01 01:39:34;;;;;;;5.67;3.12;;;16.40;99.90;;;;;;1963152;72;21109;-78
2021/08/01 01:42:02;;;;;;;6.92;2.77;;;16.30;99.90;;;;;;1976831;72;21044;-78
2021/08/01 01:44:28;;;;;;;4.05;2.50;;;16.30;99.90;;;;;;1974371;72;21170;-77
2021/08/01 01:46:54;;;;;;;7.05;3.12;;;16.30;99.90;;;;;;1969869;72;21058;-78
2021/08/01 01:49:20;;;;;;;6.80;3.35;;;16.30;99.90;;;;;;1983969;72;21131;-78
2021/08/01 01:51:46;;;;;;;9.03;3.08;;;16.30;99.90;;;;;;1974330;72;21048;-78
2021/08/01 01:54:12;;;;;;;4.75;2.52;;;16.30;99.90;;;;;;1972260;72;21064;-78
2021/08/01 01:56:38;;;;;;;6.87;2.70;;;16.30;99.90;;;;;;1973009;72;21149;-78
2021/08/01 01:59:04;;;;;;;4.15;2.55;;;16.40;99.90;;;;;;1971951;72;21059;-78
2021/08/01 02:01:31;;;;;;;5.85;3.20;;;16.30;99.90;;;;;;1973520;72;21039;-78
2021/08/01 02:03:57;;;;;;;3.90;2.87;;;16.30;99.90;;;;;;1976649;72;21056;-78
2021/08/01 02:06:23;;;;;;;3.37;2.17;;;16.30;99.90;;;;;;1978427;72;21047;-78
2021/08/01 02:08:49;;;;;;;8.20;2.80;;;16.30;99.90;;;;;;1967522;72;21125;-78
2021/08/01 02:11:15;;;;;;;3.95;2.80;;;16.30;99.90;;;;;;1974598;73;21079;-78
2021/08/01 02:13:41;;;;;;;3.45;2.70;;;16.20;99.90;;;;;;1970832;72;21129;-78
2021/08/01 02:16:07;;;;;;;4.72;2.80;;;16.20;99.90;;;;;;1974606;73;21043;-78
2021/08/01 02:18:33;;;;;;;10.15;3.00;;;16.30;99.90;;;;;;1973942;72;21059;-77
2021/08/01 02:21:00;;;;;;;5.58;2.58;;;16.30;99.90;;;;;;1974785;72;21055;-78
2021/08/01 02:23:26;;;;;;;4.75;2.70;;;16.20;99.90;;;;;;1974676;72;21105;-78
2021/08/01 02:25:52;;;;;;;4.65;3.10;;;16.30;99.90;;;;;;1969688;72;21108;-78
2021/08/01 02:28:18;;;;;;;4.95;2.87;;;16.20;99.90;;;;;;1973794;72;21133;-78
2021/08/01 02:30:44;;;;;;;3.77;2.98;;;16.10;99.90;;;;;;1974435;72;21053;-78
2021/08/01 02:33:10;;;;;;;5.65;3.45;;;16.10;99.90;;;;;;1982428;72;21062;-77
2021/08/01 02:35:36;;;;;;;3.60;3.20;;;16.20;99.90;;;;;;1991421;72;21066;-77
2021/08/01 02:38:02;;;;;;;3.67;3.37;;;16.10;99.90;;;;;;1973656;72;21058;-77
2021/08/01 02:40:28;;;;;;;6.30;3.22;;;16.20;99.90;;;;;;1973933;72;21069;-77
2021/08/01 02:42:59;;;;;;;8.10;3.83;;;16.20;99.90;;;;;;1973543;72;21059;-76
2021/08/01 02:45:25;;;;;;;5.53;3.90;;;16.20;99.90;;;;;;1980966;72;21123;-77
2021/08/01 02:47:52;;;;;;;5.03;3.72;;;16.20;99.90;;;;;;1983252;72;21059;-77
2021/08/01 02:50:18;;;;;;;6.75;3.35;;;16.20;99.90;;;;;;1977302;72;21242;-77
2021/08/01 02:52:44;;;;;;;4.72;3.30;;;16.20;99.90;;;;;;1977875;72;21031;-77
2021/08/01 02:55:10;;;;;;;5.20;3.40;;;16.20;99.90;;;;;;1984898;72;21059;-76
2021/08/01 02:57:36;;;;;;;6.62;3.05;;;16.20;99.90;;;;;;1981983;72;21071;-77
2021/08/01 03:00:02;;;;;;;8.68;3.15;;;16.10;99.90;;;;;;1979374;72;21080;-76
2021/08/01 03:02:28;;;;;;;5.80;2.98;;;16.20;99.90;;;;;;1970782;72;21053;-77
2021/08/01 03:04:54;;;;;;;6.37;3.35;;;16.20;99.90;;;;;;1974331;72;21075;-77
2021/08/01 03:07:21;;;;;;;3.52;2.85;;;16.20;99.90;;;;;;1980850;72;21070;-76
2021/08/01 03:09:47;;;;;;;7.47;2.87;;;16.10;99.90;;;;;;1973738;72;21468;-77
2021/08/01 03:12:13;;;;;;;4.08;2.75;;;16.00;99.90;;;;;;1967866;72;21491;-76
2021/08/01 03:14:39;;;;;;;3.83;2.52;;;16.00;99.90;;;;;;1971152;72;21552;-77
2021/08/01 03:17:05;;;;;;;4.70;2.55;;;16.00;99.90;;;;;;1979825;72;21552;-77
2021/08/01 03:19:31;;;;;;;6.45;2.85;;;15.80;99.90;;;;;;1965469;72;21464;-77
2021/08/01 03:21:57;;;;;;;5.60;2.00;;;15.90;99.90;;;;;;1975781;72;21463;-77
2021/08/01 03:24:23;;;;;;;4.17;2.25;;;15.80;99.90;;;;;;1972651;72;21579;-77
2021/08/01 03:26:49;;;;;;;5.67;2.60;;;15.70;99.90;;;;;;1978291;72;21142;-77
2021/08/01 03:29:16;;;;;;;3.92;2.55;;;15.60;99.90;;;;;;1963604;72;21134;-76
2021/08/01 03:31:42;;;;;;;3.35;2.25;;;15.70;99.90;;;;;;1970953;72;21121;-77
2021/08/01 03:34:08;;;;;;;4.28;2.50;;;15.60;99.90;;;;;;1970933;72;21191;-76
2021/08/01 03:36:35;;;;;;;4.25;2.95;;;15.70;99.90;;;;;;1969300;72;21129;-76
2021/08/01 03:39:01;;;;;;;6.28;2.47;;;15.70;99.90;;;;;;1983975;72;21129;-77
2021/08/01 03:41:27;;;;;;;6.78;2.60;;;15.70;99.90;;;;;;1967539;72;21129;-76
2021/08/01 03:43:53;;;;;;;3.75;2.40;;;15.70;99.90;;;;;;1974339;73;21067;-76
2021/08/01 03:46:20;;;;;;;3.17;2.58;;;15.70;99.90;;;;;;1973915;72;21467;-77
2021/08/01 03:48:46;;;;;;;4.50;2.55;;;15.60;99.90;;;;;;1969312;72;21564;-76
2021/08/01 03:51:12;;;;;;;4.10;2.60;;;15.50;99.90;;;;;;1983195;72;21489;-77
2021/08/01 03:53:38;;;;;;;2.80;2.27;;;15.60;99.90;;;;;;1983231;72;21467;-76
2021/08/01 03:56:04;;;;;;;2.17;2.00;;;15.50;99.90;;;;;;1968490;72;21462;-76
2021/08/01 03:58:30;;;;;;;3.33;2.50;;;15.50;99.90;;;;;;1983294;72;21597;-76
2021/08/01 04:00:56;;;;;;;2.75;2.50;;;15.60;99.90;;;;;;1981704;72;21547;-77
2021/08/01 04:03:22;;;;;;;4.03;2.40;;;15.60;99.90;;;;;;1976182;72;21043;-77
2021/08/01 04:05:49;;;;;;;4.85;2.62;;;15.60;99.90;;;;;;1968613;72;21054;-76
2021/08/01 04:08:15;;;;;;;2.65;2.30;;;15.60;99.90;;;;;;1973325;72;21060;-76
2021/08/01 04:10:41;;;;;;;3.60;2.70;;;15.60;99.90;;;;;;1974013;72;21102;-77
2021/08/01 04:13:07;;;;;;;3.87;2.60;;;15.50;99.90;;;;;;1974087;72;21066;-76
2021/08/01 04:15:33;;;;;;;7.08;2.40;;;15.40;99.90;;;;;;1971612;72;21125;-76
2021/08/01 04:18:05;;;;;;;5.40;2.15;;;15.40;99.90;;;;;;1974442;72;21059;-77
2021/08/01 04:20:27;;;;;;;2.67;2.25;;;15.40;99.90;;;;;;1970218;72;21096;-76
2021/08/01 04:22:53;;;;;;;2.47;2.27;;;15.40;99.90;;;;;;1982440;71;21085;-76
2021/08/01 04:25:19;;;;;;;4.70;2.40;;;15.40;99.90;;;;;;1977937;70;21103;-77
2021/08/01 04:27:46;;;;;;;12.65;2.70;;;15.40;99.90;;;;;;1972725;71;21115;-77
2021/08/01 04:30:12;;;;;;;5.42;2.55;;;15.40;99.90;;;;;;1971188;72;21137;-77
2021/08/01 04:32:38;;;;;;;3.17;2.72;;;15.40;99.90;;;;;;1970475;72;21035;-78
2021/08/01 04:35:04;;;;;;;4.22;2.30;;;15.40;99.90;;;;;;1974971;72;21067;-76
2021/08/01 04:37:30;;;;;;;2.98;2.12;;;15.40;99.90;;;;;;1974509;72;21515;-77
2021/08/01 04:39:56;;;;;;;2.45;2.00;;;15.40;99.90;;;;;;1972873;72;21553;-78
2021/08/01 04:42:22;;;;;;;5.35;2.90;;;15.50;99.90;;;;;;1975989;72;21439;-77
2021/08/01 04:44:48;;;;;;;5.17;2.47;;;15.40;99.90;;;;;;1991492;72;21419;-77
2021/08/01 04:47:15;;;;;;;4.55;2.52;;;15.40;99.90;;;;;;1981367;72;21480;-77
2021/08/01 04:49:42;;;;;;;3.25;2.50;;;15.40;99.90;;;;;;1971075;72;21561;-76
2021/08/01 04:52:08;;;;;;;3.75;2.22;;;15.30;99.90;;;;;;1970770;72;21133;-77
2021/08/01 04:54:34;;;;;;;3.42;2.62;;;15.40;99.90;;;;;;1974292;72;21084;-76
2021/08/01 04:57:00;;;;;;;6.85;2.80;;;15.40;99.90;;;;;;1990169;72;21051;-77
2021/08/01 04:59:26;;;;;;;3.87;2.47;;;15.40;99.90;;;;;;1970017;72;21095;-76
2021/08/01 05:01:52;;;;;;;5.20;2.37;;;15.50;99.90;;;;;;1971710;72;21068;-76
2021/08/01 05:04:19;;;;;;;5.83;2.08;;;15.50;99.90;;;;;;1971381;72;21097;-78
2021/08/01 05:06:46;;;;;;;3.08;2.30;;;15.60;99.90;;;;;;1970770;72;21107;-78
2021/08/01 05:09:12;;;;;;;3.08;2.20;;;15.50;99.90;;;;;;1970882;72;21133;-76
2021/08/01 05:11:38;;;;;;;2.90;2.00;;;15.50;99.90;;;;;;1973805;72;21136;-77
2021/08/01 05:14:04;;;;;;;3.00;2.12;;;15.60;99.90;;;;;;1971336;72;21031;-77
2021/08/01 05:16:30;;;;;;;3.75;2.10;;;15.60;99.90;;;;;;1969670;72;21050;-77
2021/08/01 05:18:56;;;;;;;3.10;1.92;;;15.70;99.90;;;;;;1981064;72;21106;-79
2021/08/01 05:21:22;;;;;;;5.62;2.62;;;15.70;99.90;;;;;;1982433;72;21058;-79
2021/08/01 05:23:48;;;;;;;5.40;2.30;;;15.70;99.90;;;;;;1973972;72;21225;-77
2021/08/01 05:26:15;;;;;;;2.17;2.00;;;15.70;99.90;;;;;;1977890;72;21040;-78
2021/08/01 05:28:41;;;;;;;7.55;2.00;;;15.80;99.90;;;;;;1967320;72;21055;-78
2021/08/01 05:31:07;;;;;;;3.62;2.25;;;15.70;99.90;;;;;;1972094;72;21062;-78
2021/08/01 05:33:33;;;;;;;3.27;1.75;;;15.80;99.90;;;;;;1978747;72;21023;-78
2021/08/01 05:35:59;;;;;;;4.50;2.10;;;15.80;99.90;;;;;;1974657;72;21063;-78
2021/08/01 05:38:25;;;;;;;3.15;2.10;;;15.90;99.90;;;;;;1974595;73;21052;-78
2021/08/01 05:40:51;;;;;;;1.98;1.87;;;15.90;99.90;;;;;;1971979;72;21075;-78
2021/08/01 05:43:17;;;;;;;5.35;2.37;;;16.00;99.90;;;;;;1973238;72;21085;-79
2021/08/01 05:45:44;;;;;;;4.72;2.10;;;16.10;99.90;;;;;;1974483;73;21129;-79
2021/08/01 05:48:10;;;;;;;4.92;2.20;;;16.10;99.90;;;;;;1971121;72;21144;-79
2021/08/01 05:50:36;;;;;;;2.90;2.00;;;15.90;99.90;;;;;;1971519;72;21211;-78
2021/08/01 05:53:02;;;;;;;1.95;1.70;;;15.90;99.90;;;;;;1976657;72;21458;-78
2021/08/01 05:55:28;;;;;;;6.20;1.70;;;15.80;99.90;;;;;;1979726;72;21517;-78
2021/08/01 05:57:54;;;;;;;3.85;2.17;;;15.90;99.90;;;;;;1971400;72;21467;-78
2021/08/01 06:00:20;;;;;;;3.52;2.05;;;15.80;99.90;;;;;;1985064;72;21476;-78
2021/08/01 06:02:46;;;;;;;4.97;1.72;;;15.80;99.90;;;;;;1981947;72;21546;-78
2021/08/01 06:05:13;;;;;;;2.42;2.05;;;15.90;99.90;;;;;;1969341;72;22716;-79
2021/08/01 06:07:39;;;;;;;3.47;2.08;;;16.10;99.90;;;;;;1967617;72;21700;-79
2021/08/01 06:10:05;;;;;;;3.45;2.37;;;16.00;99.90;;;;;;1977140;72;21064;-78
2021/08/01 06:12:31;;;;;;;3.90;2.27;;;16.10;99.90;;;;;;1971200;72;21117;-79
2021/08/01 06:14:57;;;;;;;7.20;2.62;;;16.20;99.90;;;;;;1972745;72;21071;-80
2021/08/01 06:17:23;;;;;;;2.45;2.22;;;16.20;99.90;;;;;;1974409;72;21055;-80
2021/08/01 06:19:49;;;;;;;3.72;2.35;;;16.20;99.90;;;;;;1984872;72;21114;-77
2021/08/01 06:22:16;;;;;;;3.60;2.42;;;16.20;99.90;;;;;;1971997;72;21099;-78
2021/08/01 06:24:42;;;;;;;2.37;1.90;;;16.10;99.90;;;;;;1974888;72;21408;-78
2021/08/01 06:27:08;;;;;;;4.50;2.35;;;16.20;99.90;;;;;;1972644;72;21523;-78
2021/08/01 06:29:34;;;;;;;5.00;2.20;;;16.10;99.90;;;;;;1974506;73;21545;-80
2021/08/01 06:32:00;;;;;;;2.35;2.08;;;16.00;99.90;;;;;;1974425;72;21471;-78
2021/08/01 06:34:26;;;;;;;2.37;2.17;;;15.90;99.90;;;;;;1967048;72;21495;-77
2021/08/01 06:36:52;;;;;;;2.98;2.22;;;15.90;99.90;;;;;;1970621;72;21062;-80
2021/08/01 06:39:18;;;;;;;5.03;2.33;;;16.00;99.90;;;;;;1974539;72;21129;-78
2021/08/01 06:41:44;;;;;;;5.55;2.50;;;15.80;99.90;;;;;;1972379;72;21140;-78
2021/08/01 06:44:11;;;;;;;3.62;2.50;;;15.80;99.90;;;;;;1972771;72;21032;-78
2021/08/01 06:46:37;;;;;;;2.22;2.00;;;15.90;99.90;;;;;;1972975;72;21176;-78
2021/08/01 06:49:03;;;;;;;3.77;2.10;;;16.10;99.90;;;;;;1980652;72;21055;-77
2021/08/01 06:51:29;;;;;;;2.80;2.25;;;16.30;99.90;;;;;;1979948;72;21039;-78
2021/08/01 06:53:55;;;;;;;3.08;2.25;;;16.30;99.90;;;;;;1967858;72;21036;-79
2021/08/01 06:56:21;;;;;;;4.53;2.20;;;16.10;99.90;;;;;;1973941;72;21201;-79
2021/08/01 06:58:47;;;;;;;2.90;2.20;;;16.10;99.90;;;;;;1967921;72;21059;-79
2021/08/01 07:01:13;;;;;;;6.12;2.60;;;16.40;99.90;;;;;;1974152;72;21102;-79
2021/08/01 07:03:40;;;;;;;4.62;2.10;;;16.40;99.90;;;;;;1977723;72;21049;-78
2021/08/01 07:06:06;;;;;;;6.70;2.30;;;16.50;99.90;;;;;;1974536;72;21059;-79
2021/08/01 07:08:32;;;;;;;3.83;2.35;;;16.60;99.90;;;;;;1974476;73;21027;-78
2021/08/01 07:10:58;;;;;;;6.20;2.20;;;16.50;99.90;;;;;;1967759;72;21059;-79
2021/08/01 07:13:24;;;;;;;2.60;2.25;;;16.40;99.90;;;;;;1971016;72;21031;-79
2021/08/01 07:15:51;;;;;;;2.90;1.92;;;16.60;99.90;;;;;;1976381;72;21219;-79
2021/08/01 07:18:17;;;;;;;2.33;2.12;;;16.90;99.90;;;;;;1976216;72;21137;-79
2021/08/01 07:20:44;;;;;;;4.60;2.22;;;16.70;99.90;;;;;;1971280;72;21266;-80
2021/08/01 07:23:10;;;;;;;3.75;2.05;;;16.90;99.90;;;;;;1976054;72;21118;-79
2021/08/01 07:25:36;;;;;;;3.52;2.00;;;17.00;99.90;;;;;;1974547;72;21352;-79
2021/08/01 07:28:04;;;;;;;3.08;2.10;;;17.10;99.90;;;;;;1968473;72;21121;-79
2021/08/01 07:30:30;;;;;;;2.30;2.08;;;17.20;99.90;;;;;;1977225;72;21443;-78
2021/08/01 07:32:57;;;;;;;2.35;1.98;;;16.90;99.90;;;;;;1971090;72;21585;-78
2021/08/01 07:35:23;;;;;;;3.00;1.92;;;16.80;99.90;;;;;;1974301;72;21141;-78
2021/08/01 07:37:50;;;;;;;2.37;2.08;;;17.00;99.90;;;;;;1974421;73;21121;-78
2021/08/01 07:40:16;;;;;;;6.28;3.27;;;17.00;99.90;;;;;;1971066;72;21117;-78
2021/08/01 07:42:42;;;;;;;17.12;2.10;;;16.80;99.90;;;;;;1970721;72;21035;-79
2021/08/01 07:45:22;;;;;;;3.80;2.60;;;16.90;99.90;;;;;;1973404;72;21063;-79
2021/08/01 07:47:36;;;;;;;3.37;2.60;;;16.90;99.90;;;;;;1963920;72;21059;-78
2021/08/01 07:50:05;;;;;;;2.92;2.12;;;16.80;99.90;;;;;;1971086;72;21120;-79
2021/08/01 07:52:31;;;;;;;3.15;2.42;;;16.90;99.90;;;;;;1968029;72;21051;-80
2021/08/01 07:54:57;;;;;;;3.77;2.40;;;16.80;99.90;;;;;;1986470;72;21083;-80
2021/08/01 07:57:23;;;;;;;3.58;1.70;;;17.10;99.90;;;;;;1974181;72;21051;-80
2021/08/01 07:59:49;;;;;;;3.62;2.50;;;17.00;99.90;;;;;;1971885;72;21056;-80
2021/08/01 08:02:17;;;;;;;2.08;1.90;;;17.00;99.90;;;;;;1970113;72;21067;-80
2021/08/01 08:04:43;;;;;;;6.15;2.58;;;17.00;99.90;;;;;;1971073;72;21077;-80
2021/08/01 08:07:09;;;;;;;3.87;2.45;;;16.90;99.90;;;;;;1979978;72;21133;-79
2021/08/01 08:09:35;;;;;;;4.80;2.40;;;17.00;99.90;;;;;;1977441;72;21265;-79
2021/08/01 08:12:02;;;;;;;3.62;2.30;;;16.80;99.90;;;;;;1980504;72;21055;-80
2021/08/01 08:14:28;;;;;;;3.40;2.47;;;16.90;99.90;;;;;;1974461;73;21055;-80
2021/08/01 08:16:54;;;;;;;4.95;2.60;;;16.60;99.90;;;;;;1968101;72;21060;-79
2021/08/01 08:19:20;;;;;;;3.55;2.45;;;16.50;99.90;;;;;;1965322;72;21075;-81
2021/08/01 08:21:46;;;;;;;4.10;2.62;;;16.70;99.90;;;;;;1972789;72;21095;-80
2021/08/01 08:24:12;;;;;;;2.62;2.42;;;16.60;99.90;;;;;;1971675;72;21035;-79
2021/08/01 08:26:39;;;;;;;4.83;2.75;;;16.50;99.90;;;;;;1982203;72;21464;-79
2021/08/01 08:29:05;;;;;;;11.78;2.98;;;16.60;99.90;;;;;;1991121;72;21447;-78
2021/08/01 08:31:31;;;;;;;4.85;2.60;;;16.60;99.90;;;;;;1974238;72;21436;-78
2021/08/01 08:33:57;;;;;;;7.20;2.67;;;16.80;99.90;;;;;;1970942;72;21454;-78
2021/08/01 08:36:23;;;;;;;6.10;2.30;;;16.80;99.90;;;;;;1983085;72;21544;-78
2021/08/01 08:38:49;;;;;;;6.87;3.42;;;17.00;99.90;;;;;;1967674;72;21552;-77
2021/08/01 08:41:16;;;;;;;5.03;2.95;;;16.80;99.90;;;;;;1977270;72;21577;-78
2021/08/01 08:43:42;;;;;;;3.37;2.87;;;16.60;99.90;;;;;;1971146;72;21141;-78
2021/08/01 08:46:08;;;;;;;4.87;2.62;;;16.60;99.90;;;;;;1974515;73;21043;-78
2021/08/01 08:48:35;;;;;;;3.37;2.58;;;16.80;99.90;;;;;;1968186;72;21124;-78
2021/08/01 08:51:01;;;;;;;3.95;2.98;;;17.00;99.90;;;;;;1982083;72;21121;-78
2021/08/01 08:53:27;;;;;;;6.25;3.00;;;16.90;99.90;;;;;;1974169;72;21072;-78
2021/08/01 08:55:53;;;;;;;6.15;3.40;;;17.00;99.90;;;;;;1970972;72;21039;-79
2021/08/01 08:58:19;;;;;;;4.45;2.58;;;17.20;99.90;;;;;;1975432;72;21092;-79
2021/08/01 09:00:45;;;;;;;3.30;2.37;;;17.30;99.90;;;;;;1991378;72;21050;-79
2021/08/01 09:03:11;;;;;;;3.15;2.42;;;17.50;99.90;;;;;;1991613;72;21047;-79
2021/08/01 09:05:39;;;;;;;3.72;2.67;;;17.30;99.90;;;;;;1981470;72;21059;-80
2021/08/01 09:08:05;;;;;;;4.22;2.83;;;17.20;99.90;;;;;;1966051;72;21132;-79
2021/08/01 09:10:32;;;;;;;4.97;3.08;;;17.50;99.90;;;;;;1976028;72;21060;-79
2021/08/01 09:12:58;;;;;;;5.25;2.98;;;17.60;99.90;;;;;;1974422;72;21067;-79
2021/08/01 09:15:24;;;;;;;2.98;2.30;;;17.50;99.90;;;;;;1974584;73;21088;-80
2021/08/01 09:17:50;;;;;;;5.97;2.80;;;17.70;99.90;;;;;;1973858;72;21040;-79
2021/08/01 09:20:17;;;;;;;2.60;2.40;;;18.00;99.90;;;;;;1971289;72;21087;-79
2021/08/01 09:22:43;;;;;;;5.92;3.02;;;18.20;99.90;;;;;;1980814;72;21129;-81
2021/08/01 09:25:11;;;;;;;6.72;2.50;;;18.20;99.90;;;;;;1975183;72;21164;-79
2021/08/01 09:27:37;;;;;;;4.87;2.55;;;18.10;99.90;;;;;;1972278;72;21195;-78
2021/08/01 09:30:03;;;;;;;7.35;3.10;;;17.90;99.90;;;;;;1970309;72;21113;-78
2021/08/01 09:32:31;;;;;;;4.10;2.72;;;17.90;99.90;;;;;;1974411;73;21084;-78
2021/08/01 09:34:57;;;;;;;3.72;2.15;;;17.90;99.90;;;;;;1967231;72;21099;-79
2021/08/01 09:37:23;;;;;;;3.22;2.17;;;18.00;99.90;;;;;;1973611;72;21167;-78
2021/08/01 09:39:49;;;;;;;3.75;2.10;;;17.90;99.90;;;;;;1970538;72;21121;-78
2021/08/01 09:42:15;;;;;;;7.62;2.47;;;17.90;99.90;;;;;;1977258;72;21063;-79
2021/08/01 09:44:41;;;;;;;2.58;1.87;;;17.90;99.90;;;;;;1991678;72;21112;-78
2021/08/01 09:47:08;;;;;;;2.40;1.80;;;17.70;99.90;;;;;;1971578;72;21048;-78
2021/08/01 09:49:34;;;;;;;1.32;1.20;;;17.90;99.90;;;;;;1964154;72;21049;-79
2021/08/01 09:52:01;;;;;;;1.32;1.12;;;17.90;99.90;;;;;;1982033;72;21109;-79
2021/08/01 09:54:27;;;;;;;1.82;1.02;;;18.00;99.90;;;;;;1973363;72;21102;-79
2021/08/01 09:56:54;;;;;;;1.20;1.05;;;17.90;99.90;;;;;;1965320;72;21063;-79
2021/08/01 09:59:20;;;;;;;2.22;1.20;;;17.80;99.90;;;;;;1971354;72;21087;-80
2021/08/01 10:01:47;;;;;;;1.30;1.20;;;17.80;99.90;;;;;;1974520;73;21145;-78
2021/08/01 10:04:14;;;;;;;2.72;1.70;;;17.80;99.90;;;;;;1971239;72;21056;-80
2021/08/01 10:06:41;;;;;;;2.22;1.45;;;17.90;99.90;;;;;;1974299;72;21099;-80
2021/08/01 10:09:07;;;;;;;1.85;1.55;;;18.20;99.90;;;;;;1974435;72;21103;-80
2021/08/01 10:11:33;;;;;;;2.80;1.35;;;18.50;99.90;;;;;;1967422;72;21125;-80
2021/08/01 10:13:59;;;;;;;1.77;1.27;;;18.50;99.90;;;;;;1969654;72;21031;-80
2021/08/01 10:16:25;;;;;;;4.03;1.62;;;18.60;99.90;;;;;;1972263;72;21055;-78
2021/08/01 10:18:51;;;;;;;5.60;1.40;;;18.50;99.90;;;;;;1970741;72;21068;-79
2021/08/01 10:21:17;;;;;;;1.57;1.30;;;18.80;99.90;;;;;;1973923;72;21110;-80
2021/08/01 10:23:43;;;;;;;1.47;1.35;;;18.70;99.90;;;;;;1969910;72;21094;-80
2021/08/01 10:26:10;;;;;;;2.90;1.47;;;18.40;99.90;;;;;;1971262;72;21067;-80
2021/08/01 10:28:36;;;;;;;2.47;1.52;;;18.60;99.90;;;;;;1977221;72;21132;-81
2021/08/01 10:31:02;;;;;;;1.70;1.42;;;18.60;99.90;;;;;;1977074;72;21475;-79
2021/08/01 10:33:28;;;;;;;1.85;1.50;;;18.50;99.90;;;;;;1958147;72;21518;-80
2021/08/01 10:35:54;;;;;;;3.00;1.72;;;18.70;99.90;;;;;;1966538;72;21478;-80
2021/08/01 10:38:20;;;;;;;4.67;1.50;;;18.80;99.90;;;;;;1981653;72;21474;-80
2021/08/01 10:40:51;;;;;;;7.17;1.22;;;18.70;99.90;;;;;;1956319;72;21450;-81
2021/08/01 10:43:14;;;;;;;2.10;1.30;;;18.80;99.90;;;;;;1974568;72;21044;-80
2021/08/01 10:45:40;;;;;;;1.95;1.52;;;18.60;99.90;;;;;;1974329;72;21117;-80
2021/08/01 10:48:07;;;;;;;2.10;1.22;;;18.80;99.90;;;;;;1974296;72;21122;-81
2021/08/01 10:50:33;;;;;;;5.60;1.85;;;19.10;99.90;;;;;;1974377;72;21055;-80
2021/08/01 10:52:59;;;;;;;2.15;1.57;;;19.20;99.90;;;;;;1974479;72;21032;-81
2021/08/01 10:55:26;;;;;;;3.40;1.47;;;19.30;99.90;;;;;;1974308;73;21117;-80
2021/08/01 10:57:52;;;;;;;2.55;2.00;;;19.50;99.90;;;;;;1978472;72;21128;-80
2021/08/01 11:00:18;;;;;;;5.12;2.37;;;19.50;99.90;;;;;;1982332;72;21126;-81
2021/08/01 11:02:44;;;;;;;2.37;1.60;;;19.60;99.90;;;;;;1974677;72;21033;-81
2021/08/01 11:05:10;;;;;;;2.65;1.55;;;19.80;99.90;;;;;;1970953;72;21050;-81
2021/08/01 11:07:36;;;;;;;7.60;1.65;;;20.20;99.90;;;;;;1974542;72;21052;-81
2021/08/01 11:10:02;;;;;;;3.00;1.20;;;20.50;99.90;;;;;;1975878;72;21062;-81
2021/08/01 11:12:29;;;;;;;3.12;1.30;;;20.60;99.90;;;;;;1967292;72;21033;-81
2021/08/01 11:14:56;;;;;;;2.45;1.52;;;20.50;99.90;;;;;;1975526;72;21067;-82
2021/08/01 11:17:22;;;;;;;3.47;1.60;;;20.30;99.90;;;;;;1982152;72;21047;-82
2021/08/01 11:19:49;;;;;;;4.28;1.42;;;20.50;99.90;;;;;;1975650;72;21166;-82
2021/08/01 11:22:15;;;;;;;2.25;1.60;;;20.20;99.90;;;;;;1972621;72;21149;-80
2021/08/01 11:24:41;;;;;;;1.10;1.00;;;19.90;99.90;;;;;;1974292;72;21044;-81
2021/08/01 11:27:07;;;;;;;3.02;1.60;;;20.10;99.90;;;;;;1969392;72;21372;-82
2021/08/01 11:29:33;;;;;;;1.98;1.50;;;20.20;99.90;;;;;;1971629;72;21047;-81
2021/08/01 11:32:00;;;;;;;6.70;1.47;;;20.40;99.90;;;;;;1974427;73;21105;-82
2021/08/01 11:34:26;;;;;;;1.20;1.10;;;20.60;99.90;;;;;;1971262;72;21032;-81
2021/08/01 11:36:52;;;;;;;1.85;1.32;;;21.00;99.90;;;;;;1972793;72;21048;-80
2021/08/01 11:39:18;;;;;;;1.30;1.20;;;20.90;99.90;;;;;;1973404;72;21099;-81
2021/08/01 11:41:44;;;;;;;3.27;1.57;;;20.60;99.90;;;;;;1978503;72;21062;-80
2021/08/01 11:44:16;;;;;;;2.52;1.40;;;20.60;99.90;;;;;;1979184;72;21129;-81
2021/08/01 11:46:42;;;;;;;1.52;1.27;;;20.90;99.90;;;;;;1990466;72;21043;-81
2021/08/01 11:49:08;;;;;;;3.02;1.50;;;21.10;99.90;;;;;;1968324;72;21044;-81
2021/08/01 11:51:35;;;;;;;6.00;1.67;;;21.40;99.90;;;;;;1977962;72;21124;-81
2021/08/01 11:54:01;;;;;;;1.57;1.47;;;21.80;99.90;;;;;;1974867;72;21129;-80
2021/08/01 11:56:27;;;;;;;2.60;1.37;;;21.80;99.90;;;;;;1974473;72;21242;-80
2021/08/01 11:58:53;;;;;;;5.08;1.30;;;21.10;99.90;;;;;;1976264;72;21053;-79
2021/08/01 12:01:20;;;;;;;3.47;1.60;;;21.40;99.90;;;;;;1978381;72;21195;-80
2021/08/01 12:03:46;;;;;;;2.65;1.40;;;21.50;99.90;;;;;;1971752;72;21161;-79
2021/08/01 12:06:12;;;;;;;2.58;1.62;;;21.70;99.90;;;;;;1974315;72;21141;-79
2021/08/01 12:08:38;;;;;;;1.75;1.45;;;21.50;99.90;;;;;;1974338;72;21099;-79
2021/08/01 12:11:04;;;;;;;4.47;1.67;;;20.90;99.90;;;;;;1965482;72;21129;-79
2021/08/01 12:13:30;;;;;;;2.52;1.70;;;20.80;99.90;;;;;;1972336;72;21133;-79
2021/08/01 12:15:56;;;;;;;3.98;1.50;;;20.90;99.90;;;;;;1967547;72;21074;-79
2021/08/01 12:18:23;;;;;;;2.92;1.65;;;21.10;99.90;;;;;;1967546;72;21129;-79
2021/08/01 12:20:49;;;;;;;2.35;1.70;;;21.50;99.90;;;;;;1974535;73;21093;-79
2021/08/01 12:23:17;;;;;;;1.50;1.35;;;21.80;99.90;;;;;;1974176;72;21047;-79
2021/08/01 12:25:43;;;;;;;1.98;1.40;;;21.80;99.90;;;;;;1971429;72;21561;-79
2021/08/01 12:28:09;;;;;;;2.87;1.50;;;21.80;99.90;;;;;;1974177;72;21609;-79
2021/08/01 12:30:35;;;;;;;3.35;1.72;;;21.60;99.90;;;;;;1972963;72;21485;-79
2021/08/01 12:33:03;;;;;;;1.40;1.30;;;21.40;99.90;;;;;;1974956;72;21504;-79
2021/08/01 12:35:29;;;;;;;2.70;1.62;;;21.30;99.90;;;;;;1974178;73;21145;-79
2021/08/01 12:38:02;;;;;;;3.83;1.77;;;21.40;99.90;;;;;;1971240;72;21370;-81
2021/08/01 12:40:28;;;;;;;2.20;1.50;;;21.60;99.90;;;;;;1974070;72;21526;-80